createdAt,value
2019-05-22T00:05:58.691Z,71.50
2019-05-22T00:16:01.705Z,72.10
2019-05-22T00:26:02.920Z,72.60
2019-05-22T00:36:06.089Z,72.20
2019-05-22T00:46:09.219Z,72.18
2019-05-22T00:56:13.036Z,71.71
2019-05-22T01:06:15.227Z,71.43
2019-05-22T01:16:18.156Z,72.03
2019-05-22T01:26:23.415Z,72.38
2019-05-22T01:36:29.603Z,72.53
2019-05-22T01:46:33.651Z,71.87
2019-05-22T01:56:35.173Z,71.46
2019-05-22T02:06:37.198Z,71.33
2019-05-22T02:16:55.564Z,71.35
2019-05-22T02:26:45.902Z,71.51
2019-05-22T02:36:47.958Z,71.70
2019-05-22T02:46:50.355Z,71.78
2019-05-22T02:56:52.092Z,71.67
2019-05-22T03:06:54.562Z,71.51
2019-05-22T03:17:01.966Z,71.74
2019-05-22T03:27:05.289Z,72.48
2019-05-22T03:37:06.461Z,71.92
2019-05-22T03:47:08.711Z,71.91
2019-05-22T03:57:10.638Z,71.75
2019-05-22T04:07:13.595Z,71.69
2019-05-22T04:17:15.447Z,70.18
2019-05-22T04:27:17.718Z,70.28
2019-05-22T04:37:19.431Z,70.19
2019-05-22T04:47:21.263Z,69.69
2019-05-22T04:57:22.381Z,69.87
2019-05-22T05:07:25.237Z,69.11
2019-05-22T05:17:27.200Z,69.46
2019-05-22T05:27:28.536Z,69.65
2019-05-22T05:37:30.035Z,69.21
2019-05-22T05:47:31.623Z,68.46
2019-05-22T05:57:40.146Z,68.30
2019-05-22T06:07:41.566Z,68.15
2019-05-22T06:17:57.863Z,67.78
2019-05-22T06:28:00.907Z,67.61
2019-05-22T06:38:23.822Z,67.02
2019-05-22T06:48:25.449Z,66.40
2019-05-22T06:58:27.153Z,64.54
2019-05-22T07:08:29.105Z,62.91
2019-05-22T07:18:31.334Z,62.13
2019-05-22T07:28:32.922Z,62.72
2019-05-22T07:38:34.552Z,63.79
2019-05-22T07:48:36.304Z,64.78
2019-05-22T07:58:38.359Z,65.16
2019-05-22T08:08:41.922Z,64.07
2019-05-22T08:18:43.099Z,65.08
2019-05-22T08:28:44.967Z,64.72
2019-05-22T08:38:46.231Z,63.17
2019-05-22T08:48:49.501Z,61.50
2019-05-22T08:58:51.435Z,60.96
2019-05-22T09:08:52.635Z,62.71
2019-05-22T09:18:55.211Z,59.78
2019-05-22T09:28:56.691Z,59.78
2019-05-22T09:38:58.042Z,58.14
2019-05-22T09:49:01.253Z,57.34
2019-05-22T09:59:03.003Z,56.45
2019-05-22T10:09:06.866Z,56.42
2019-05-22T10:19:09.105Z,55.52
2019-05-22T10:29:11.253Z,54.20
2019-05-22T10:39:14.795Z,54.79
2019-05-22T10:49:16.259Z,54.38
2019-05-22T10:59:18.506Z,53.44
2019-05-22T11:09:19.853Z,53.10
2019-05-22T11:19:21.478Z,52.44
2019-05-22T11:29:22.830Z,49.50
2019-05-22T11:39:38.481Z,51.98
2019-05-22T11:49:28.869Z,48.34
2019-05-22T11:59:31.859Z,47.19
2019-05-22T12:09:33.150Z,50.58
2019-05-22T12:19:34.486Z,52.07
2019-05-22T12:29:36.180Z,54.74
2019-05-22T12:39:37.548Z,55.41
2019-05-22T12:49:39.276Z,58.67
2019-05-22T12:59:42.420Z,59.25
2019-05-22T13:09:44.335Z,59.25
2019-05-22T13:19:46.942Z,55.18
2019-05-22T13:29:49.500Z,50.46
2019-05-22T13:39:51.037Z,47.75
2019-05-22T13:49:53.788Z,46.77
2019-05-22T13:59:55.115Z,44.75
2019-05-22T14:09:56.402Z,44.60
2019-05-22T14:19:58.404Z,46.97
2019-05-22T14:30:00.010Z,50.51
2019-05-22T14:40:01.400Z,53.51
2019-05-22T14:50:05.730Z,52.82
2019-05-22T15:00:09.930Z,51.89
2019-05-22T15:10:16.860Z,52.40
2019-05-22T15:20:23.567Z,54.79
2019-05-22T15:30:25.547Z,56.39
2019-05-22T15:40:27.674Z,54.41
2019-05-22T15:50:32.991Z,51.16
2019-05-22T16:10:49.411Z,51.09
2019-05-22T16:20:53.951Z,51.08
2019-05-22T16:31:10.932Z,51.58
2019-05-22T16:41:07.141Z,48.38
2019-05-22T16:51:09.996Z,47.67
2019-05-22T17:01:11.098Z,47.24
2019-05-22T17:11:12.767Z,47.48
2019-05-22T17:21:15.271Z,48.12
2019-05-22T17:31:16.770Z,49.18
2019-05-22T17:41:19.920Z,52.23
2019-05-22T17:51:22.464Z,53.99
2019-05-22T18:01:23.801Z,55.63
2019-05-22T18:11:25.293Z,56.46
2019-05-22T18:21:27.324Z,57.98
2019-05-22T18:31:28.777Z,58.97
2019-05-22T18:41:30.151Z,59.89
2019-05-22T18:51:31.275Z,61.28
2019-05-22T19:01:32.686Z,62.96
2019-05-22T19:11:35.912Z,64.03
2019-05-22T19:21:37.274Z,64.41
2019-05-22T19:31:39.048Z,64.84
2019-05-22T19:41:40.419Z,65.50
2019-05-22T19:51:42.527Z,66.24
2019-05-22T20:01:43.685Z,66.76
2019-05-22T20:11:45.413Z,66.64
2019-05-22T20:21:47.271Z,67.33
2019-05-22T20:31:49.036Z,68.86
2019-05-22T20:41:51.340Z,69.12
2019-05-22T20:51:54.117Z,68.58
2019-05-22T21:01:55.455Z,68.69
2019-05-22T21:11:56.687Z,68.54
2019-05-22T21:22:00.084Z,69.51
2019-05-22T21:32:02.308Z,69.46
2019-05-22T21:42:16.278Z,69.39
2019-05-22T21:52:17.537Z,69.95
2019-05-22T22:02:24.323Z,70.32
2019-05-22T22:12:26.391Z,70.05
2019-05-22T22:22:28.798Z,70.81
2019-05-22T22:32:32.252Z,71.00
2019-05-22T22:42:37.264Z,71.23
2019-05-22T22:52:41.761Z,70.78
2019-05-22T23:02:46.197Z,72.01
2019-05-22T23:12:47.328Z,71.92
2019-05-22T23:22:48.775Z,71.83
2019-05-22T23:43:09.558Z,72.91
2019-05-22T23:53:11.712Z,71.73
